createdAt,value
2017-03-02T00:00:54.804Z,79.7
2017-03-02T00:02:09.238Z,79.7
2017-03-02T00:03:23.637Z,79.41
2017-03-02T00:04:38.070Z,79.8
2017-03-02T00:05:52.501Z,79.5
2017-03-02T00:07:06.964Z,80.19
2017-03-02T00:08:21.429Z,80.67
2017-03-02T00:09:35.810Z,80.77
2017-03-02T00:10:50.211Z,80.77
2017-03-02T00:12:04.629Z,81.6
2017-03-02T00:13:17.777Z,81.4
2017-03-02T00:14:31.569Z,81.98
2017-03-02T00:15:45.988Z,81.6
2017-03-02T00:17:00.403Z,80.54
2017-03-02T00:18:14.814Z,81.02
2017-03-02T00:19:29.235Z,80.34
2017-03-02T00:20:42.987Z,80.92
2017-03-02T00:21:56.761Z,80.92
2017-03-02T00:23:10.519Z,81.5
2017-03-02T00:24:24.267Z,81.21
2017-03-02T00:25:38.025Z,81.5
2017-03-02T00:26:52.452Z,81.12
2017-03-02T00:28:06.867Z,80.54
2017-03-02T00:29:21.324Z,80.54
2017-03-02T00:30:35.763Z,80.44
2017-03-02T00:31:49.539Z,80.24
2017-03-02T00:33:04.003Z,80.34
2017-03-02T00:34:18.424Z,80.34
2017-03-02T00:35:32.851Z,80.73
2017-03-02T00:36:46.639Z,81.21
2017-03-02T00:38:01.040Z,81.21
2017-03-02T00:39:14.834Z,81.21
2017-03-02T00:40:29.290Z,81.12
2017-03-02T00:41:43.734Z,81.98
2017-03-02T00:42:58.148Z,81.65
2017-03-02T00:44:12.558Z,81.85
2017-03-02T00:45:25.674Z,81.79
2017-03-02T00:46:39.456Z,81.65
2017-03-02T00:47:53.916Z,81.79
2017-03-02T00:49:08.368Z,82.04
2017-03-02T00:50:22.772Z,81.95
2017-03-02T00:51:37.273Z,82.53
2017-03-02T00:52:51.116Z,82.14
2017-03-02T00:54:05.545Z,82.14
2017-03-02T00:55:19.928Z,82.23
2017-03-02T00:56:34.400Z,82.53
2017-03-02T00:57:49.006Z,82.23
2017-03-02T00:59:02.113Z,82.91
2017-03-02T01:00:16.534Z,82.72
2017-03-02T01:01:30.972Z,82.72
2017-03-02T01:02:45.366Z,82.91
2017-03-02T01:03:59.811Z,83.11
2017-03-02T01:05:14.235Z,83.11
2017-03-02T01:06:28.016Z,83.2
2017-03-02T01:07:42.485Z,83.4
2017-03-02T01:08:56.932Z,83.4
2017-03-02T01:10:11.346Z,83.59
2017-03-02T01:11:25.764Z,83.3
2017-03-02T01:12:40.173Z,83.98
2017-03-02T01:13:53.910Z,83.98
2017-03-02T01:15:08.301Z,84.27
2017-03-02T01:16:22.808Z,84.17
2017-03-02T01:17:36.538Z,84.36
2017-03-02T01:18:50.973Z,84.75
2017-03-02T01:20:04.720Z,84.75
2017-03-02T01:21:19.134Z,85.04
2017-03-02T01:22:32.935Z,84.66
2017-03-02T01:23:47.378Z,84.27
2017-03-02T01:25:01.805Z,84.08
2017-03-02T01:26:15.595Z,84.84
2017-03-02T01:27:30.005Z,83.98
2017-03-02T01:28:44.458Z,83.59
2017-03-02T01:29:58.223Z,83.78
2017-03-02T01:31:12.671Z,83.78
2017-03-02T01:32:27.098Z,83.88
2017-03-02T01:33:41.536Z,84.36
2017-03-02T01:34:55.936Z,84.27
2017-03-02T01:36:09.701Z,84.17
2017-03-02T01:37:23.555Z,84.36
2017-03-02T01:38:37.985Z,84.36
2017-03-02T01:39:52.435Z,84.17
2017-03-02T01:41:06.853Z,84.17
2017-03-02T01:42:20.630Z,84.56
2017-03-02T01:43:35.077Z,84.56
2017-03-02T01:44:48.885Z,84.17
2017-03-02T01:46:02.038Z,84.75
2017-03-02T01:47:16.255Z,84.56
2017-03-02T01:48:28.783Z,85
2017-03-02T01:49:42.527Z,85.19
2017-03-02T01:50:55.646Z,84.8
2017-03-02T01:52:09.373Z,85.19
2017-03-02T01:53:22.494Z,85.29
2017-03-02T01:54:35.614Z,85.1
2017-03-02T01:55:49.322Z,85.19
2017-03-02T01:57:03.051Z,85.58
2017-03-02T01:58:16.781Z,85
2017-03-02T01:59:30.521Z,85.1
2017-03-02T02:00:42.471Z,85.68
2017-03-02T02:01:55.593Z,85.29
2017-03-02T02:03:09.311Z,85.68
2017-03-02T02:04:22.455Z,85.58
2017-03-02T02:05:35.645Z,85.19
2017-03-02T02:06:48.893Z,85.29
2017-03-02T02:08:02.035Z,85.77
2017-03-02T02:09:15.769Z,85.68
2017-03-02T02:10:28.924Z,85.48
2017-03-02T02:11:42.050Z,85.1
2017-03-02T02:12:54.600Z,85.19
2017-03-02T02:14:08.393Z,85.29
2017-03-02T02:15:21.549Z,84.8
2017-03-02T02:16:35.312Z,84.71
2017-03-02T02:17:49.072Z,84.71
2017-03-02T02:19:02.277Z,84.13
2017-03-02T02:20:16.023Z,84.8
2017-03-02T02:21:29.752Z,84.8
2017-03-02T02:22:43.511Z,84.61
2017-03-02T02:23:57.206Z,83.84
2017-03-02T02:25:10.924Z,84.71
2017-03-02T02:26:24.642Z,85
2017-03-02T02:27:38.385Z,85.19
2017-03-02T02:28:51.521Z,85
2017-03-02T02:30:05.231Z,85.05
2017-03-02T02:31:18.333Z,85.53
2017-03-02T02:32:32.073Z,85.05
2017-03-02T02:33:45.196Z,85.44
2017-03-02T02:34:58.328Z,84.95
2017-03-02T02:36:12.089Z,85.15
2017-03-02T02:37:25.261Z,85.53
2017-03-02T02:38:38.983Z,85.35
2017-03-02T02:39:52.702Z,85.15
2017-03-02T02:41:05.854Z,85.25
2017-03-02T02:42:19.607Z,85.35
2017-03-02T02:43:33.361Z,85.35
2017-03-02T02:44:47.065Z,85.44
2017-03-02T02:46:00.192Z,85.53
2017-03-02T02:47:13.333Z,85.05
2017-03-02T02:48:25.858Z,85.63
2017-03-02T02:49:38.996Z,85.63
2017-03-02T02:50:52.786Z,86.11
2017-03-02T02:52:06.506Z,86.02
2017-03-02T02:53:20.217Z,86.11
2017-03-02T02:54:33.936Z,85.83
2017-03-02T02:55:47.076Z,85.73
2017-03-02T02:57:00.834Z,86.21
2017-03-02T02:58:14.556Z,86.02
2017-03-02T02:59:28.284Z,86.21
2017-03-02T03:00:41.429Z,86.11
2017-03-02T03:01:55.169Z,85.93
2017-03-02T03:03:08.886Z,86.69
2017-03-02T03:04:22.649Z,86.41
2017-03-02T03:05:35.799Z,86.6
2017-03-02T03:06:49.527Z,86.89
2017-03-02T03:08:03.252Z,87.08
2017-03-02T03:09:16.376Z,86.27
2017-03-02T03:10:29.539Z,86.51
2017-03-02T03:11:43.254Z,85.73
2017-03-02T03:12:56.983Z,85.93
2017-03-02T03:14:10.743Z,86.41
2017-03-02T03:15:24.512Z,86.21
2017-03-02T03:16:38.238Z,86.41
2017-03-02T03:17:51.993Z,86.11
2017-03-02T03:19:05.737Z,86.41
2017-03-02T03:20:18.898Z,85.93
2017-03-02T03:21:32.631Z,85.83
2017-03-02T03:22:46.387Z,86.11
2017-03-02T03:24:00.120Z,86.11
2017-03-02T03:25:13.901Z,86.41
2017-03-02T03:26:27.663Z,86.21
2017-03-02T03:27:41.405Z,86.41
2017-03-02T03:28:54.537Z,86.02
2017-03-02T03:30:07.711Z,86.31
2017-03-02T03:31:20.875Z,86.46
2017-03-02T03:32:33.453Z,86.11
2017-03-02T03:33:47.172Z,86.21
2017-03-02T03:35:00.286Z,86.21
2017-03-02T03:36:12.810Z,86.27
2017-03-02T03:37:26.591Z,86.75
2017-03-02T03:38:40.335Z,86.75
2017-03-02T03:39:54.060Z,86.75
2017-03-02T03:41:07.187Z,86.75
2017-03-02T03:42:20.942Z,86.75
2017-03-02T03:43:33.517Z,86.36
2017-03-02T03:44:47.250Z,86.27
2017-03-02T03:46:00.949Z,85.69
2017-03-02T03:47:14.719Z,86.07
2017-03-02T03:48:28.440Z,86.65
2017-03-02T03:49:42.142Z,86.27
2017-03-02T03:50:54.663Z,86.56
2017-03-02T03:52:07.834Z,86.56
2017-03-02T03:53:21.568Z,87.04
2017-03-02T03:54:35.328Z,86.85
2017-03-02T03:55:49.052Z,86.94
2017-03-02T03:57:02.211Z,86.56
2017-03-02T03:58:15.439Z,87.52
2017-03-02T03:59:28.575Z,87.33
2017-03-02T04:00:42.299Z,86.75
2017-03-02T04:01:55.466Z,87.04
2017-03-02T04:03:09.213Z,86.85
2017-03-02T04:04:22.929Z,86.75
2017-03-02T04:05:36.684Z,87.04
2017-03-02T04:06:50.447Z,86.75
2017-03-02T04:08:03.556Z,86.56
2017-03-02T04:09:17.261Z,86.36
2017-03-02T04:10:30.436Z,86.36
2017-03-02T04:11:44.208Z,86.65
2017-03-02T04:12:57.965Z,86.65
2017-03-02T04:14:11.725Z,86.75
2017-03-02T04:15:25.477Z,86.65
2017-03-02T04:16:39.192Z,86.65
2017-03-02T04:17:52.965Z,86.75
2017-03-02T04:19:06.710Z,86.56
2017-03-02T04:20:20.414Z,86.46
2017-03-02T04:21:33.557Z,85.78
2017-03-02T04:22:47.269Z,85.98
2017-03-02T04:24:01.065Z,86.07
2017-03-02T04:25:14.770Z,86.27
2017-03-02T04:26:28.543Z,86.27
2017-03-02T04:27:42.275Z,86.07
2017-03-02T04:28:56.019Z,86.17
2017-03-02T04:30:09.139Z,86.56
2017-03-02T04:31:22.876Z,86.85
2017-03-02T04:32:36.630Z,86.36
2017-03-02T04:33:50.414Z,86.07
2017-03-02T04:35:03.543Z,86.07
2017-03-02T04:36:17.293Z,86.17
2017-03-02T04:37:31.059Z,86.56
2017-03-02T04:38:44.788Z,86.07
2017-03-02T04:39:58.550Z,86.17
2017-03-02T04:41:12.294Z,86.07
2017-03-02T04:42:26.004Z,85.88
2017-03-02T04:43:39.776Z,85.49
2017-03-02T04:44:52.892Z,85.69
2017-03-02T04:46:06.631Z,85.98
2017-03-02T04:47:20.343Z,85.78
2017-03-02T04:48:34.085Z,85.88
2017-03-02T04:49:47.818Z,85.98
2017-03-02T04:51:01.548Z,85.78
2017-03-02T04:52:15.280Z,85.59
2017-03-02T04:53:28.997Z,85.98
2017-03-02T04:54:42.113Z,85.98
2017-03-02T04:55:55.867Z,85.88
2017-03-02T04:57:09.617Z,85.49
2017-03-02T04:58:22.792Z,86.56
2017-03-02T04:59:35.298Z,85.69
2017-03-02T05:00:49.075Z,86.36
2017-03-02T05:02:02.794Z,86.36
2017-03-02T05:03:16.534Z,85.69
2017-03-02T05:04:30.325Z,85.88
2017-03-02T05:05:44.074Z,86.17
2017-03-02T05:06:57.804Z,86.36
2017-03-02T05:08:11.508Z,85.69
2017-03-02T05:09:25.459Z,86.07
2017-03-02T05:10:39.045Z,86.65
2017-03-02T05:11:52.806Z,86.65
2017-03-02T05:13:05.920Z,86.17
2017-03-02T05:14:19.640Z,85.88
2017-03-02T05:15:33.382Z,86.17
2017-03-02T05:16:47.093Z,86.07
2017-03-02T05:18:00.819Z,85.98
2017-03-02T05:19:14.543Z,85.88
2017-03-02T05:20:27.654Z,85.49
2017-03-02T05:21:41.371Z,86.07
2017-03-02T05:22:54.503Z,85.98
2017-03-02T05:24:07.638Z,85.98
2017-03-02T05:25:21.351Z,85.88
2017-03-02T05:26:35.070Z,85.4
2017-03-02T05:27:48.792Z,85.69
2017-03-02T05:29:02.502Z,85.98
2017-03-02T05:30:16.264Z,85.49
2017-03-02T05:31:29.389Z,86.46
2017-03-02T05:32:43.110Z,87.33
2017-03-02T05:33:56.867Z,86.17
2017-03-02T05:35:10.654Z,85.98
2017-03-02T05:36:23.768Z,86.75
2017-03-02T05:37:37.511Z,86.85
2017-03-02T05:38:51.279Z,87.04
2017-03-02T05:40:05.111Z,86.46
2017-03-02T05:41:18.855Z,85.69
2017-03-02T05:42:31.985Z,85.98
2017-03-02T05:43:45.707Z,85.88
2017-03-02T05:44:59.445Z,85.4
2017-03-02T05:46:13.189Z,85.59
2017-03-02T05:47:26.353Z,86.17
2017-03-02T05:48:40.088Z,85.88
2017-03-02T05:49:53.237Z,86.65
2017-03-02T05:51:06.362Z,86.07
2017-03-02T05:52:19.507Z,86.75
2017-03-02T05:53:33.259Z,86.65
2017-03-02T05:54:46.988Z,87.13
2017-03-02T05:56:00.727Z,86.65
2017-03-02T05:57:13.880Z,85.69
2017-03-02T05:58:27.599Z,86.56
2017-03-02T05:59:41.342Z,87.33
2017-03-02T06:00:55.072Z,86.94
2017-03-02T06:02:08.807Z,86.85
2017-03-02T06:03:22.534Z,86.85
2017-03-02T06:04:35.704Z,85.88
2017-03-02T06:05:49.428Z,86.17
2017-03-02T06:07:02.592Z,86.56
2017-03-02T06:08:16.313Z,86.85
2017-03-02T06:09:29.438Z,86.46
2017-03-02T06:10:43.279Z,86.46
2017-03-02T06:11:57.560Z,86.85
2017-03-02T06:13:11.319Z,86.56
2017-03-02T06:14:25.064Z,86.65
2017-03-02T06:15:38.798Z,87.04
2017-03-02T06:16:52.012Z,87.23
2017-03-02T06:18:05.721Z,87.33
2017-03-02T06:19:19.413Z,87.13
2017-03-02T06:20:33.143Z,86.85
2017-03-02T06:21:46.904Z,86.94
2017-03-02T06:23:00.630Z,87.33
2017-03-02T06:24:14.379Z,86.94
2017-03-02T06:25:27.468Z,87.13
2017-03-02T06:26:41.195Z,87.13
2017-03-02T06:27:54.328Z,86.94
2017-03-02T06:29:08.060Z,87.52
2017-03-02T06:30:21.786Z,87.33
2017-03-02T06:31:35.504Z,87.23
2017-03-02T06:32:49.257Z,87.04
2017-03-02T06:34:02.986Z,87.43
2017-03-02T06:35:16.726Z,86.46
2017-03-02T06:36:29.256Z,86.56
2017-03-02T06:37:42.007Z,86.65
2017-03-02T06:38:56.296Z,86.56
2017-03-02T06:40:10.060Z,87.04
2017-03-02T06:41:23.211Z,87.52
2017-03-02T06:42:36.948Z,87.43
2017-03-02T06:43:50.677Z,87.33
2017-03-02T06:45:04.444Z,87.33
2017-03-02T06:46:18.229Z,87.71
2017-03-02T06:47:31.373Z,87.62
2017-03-02T06:48:45.101Z,87.19
2017-03-02T06:49:58.827Z,86.65
2017-03-02T06:51:12.527Z,87.23
2017-03-02T06:52:26.277Z,87.23
2017-03-02T06:53:40.018Z,87.91
2017-03-02T06:54:53.139Z,88.2
2017-03-02T06:56:06.868Z,88.49
2017-03-02T06:57:20.002Z,87.13
2017-03-02T06:58:32.526Z,87.62
2017-03-02T06:59:45.654Z,87.81
2017-03-02T07:00:59.431Z,88.2
2017-03-02T07:02:13.184Z,88.2
2017-03-02T07:03:26.945Z,87.04
2017-03-02T07:04:40.736Z,87.13
2017-03-02T07:05:54.470Z,86.56
2017-03-02T07:07:08.181Z,86.71
2017-03-02T07:08:21.904Z,86.52
2017-03-02T07:09:35.660Z,87.09
2017-03-02T07:10:48.790Z,86.32
2017-03-02T07:12:02.501Z,87.09
2017-03-02T07:13:16.230Z,87.29
2017-03-02T07:14:29.384Z,87.19
2017-03-02T07:15:43.098Z,87.09
2017-03-02T07:16:56.217Z,87.38
2017-03-02T07:18:09.968Z,87.77
2017-03-02T07:19:23.677Z,87.77
2017-03-02T07:20:37.446Z,87.87
2017-03-02T07:21:51.193Z,87.87
2017-03-02T07:23:04.946Z,87.77
2017-03-02T07:24:18.663Z,87.77
2017-03-02T07:25:32.360Z,87.77
2017-03-02T07:26:46.043Z,88.15
2017-03-02T07:27:59.757Z,88.15
2017-03-02T07:29:12.913Z,88.25
2017-03-02T07:30:26.612Z,88.73
2017-03-02T07:31:40.317Z,88.06
2017-03-02T07:32:54.051Z,88.15
2017-03-02T07:34:07.176Z,87.67
2017-03-02T07:35:20.879Z,88.25
2017-03-02T07:36:34.596Z,88.54
2017-03-02T07:37:48.306Z,88.45
2017-03-02T07:39:02.057Z,89.41
2017-03-02T07:40:15.815Z,89.85
2017-03-02T07:41:29.548Z,89.56
2017-03-02T07:42:42.679Z,90.05
2017-03-02T07:43:56.406Z,90.05
2017-03-02T07:45:09.532Z,90.72
2017-03-02T07:46:23.243Z,90.62
2017-03-02T07:47:36.393Z,91.49
2017-03-02T07:48:50.164Z,91.39
2017-03-02T07:50:03.906Z,91.2
2017-03-02T07:51:17.616Z,91.68
2017-03-02T07:52:31.323Z,91.88
2017-03-02T07:53:45.069Z,92.65
2017-03-02T07:54:58.203Z,91.88
2017-03-02T07:56:11.996Z,92.36
2017-03-02T07:57:25.850Z,92.36
2017-03-02T07:58:39.010Z,92.94
2017-03-02T07:59:52.741Z,92.65
2017-03-02T08:01:05.846Z,93.23
2017-03-02T08:02:18.999Z,94
2017-03-02T08:03:32.746Z,93.37
2017-03-02T08:04:45.892Z,92.41
2017-03-02T08:05:59.060Z,92.74
2017-03-02T08:07:12.767Z,93.32
2017-03-02T08:08:26.540Z,93.04
2017-03-02T08:09:40.296Z,93.23
2017-03-02T08:10:53.427Z,93.62
2017-03-02T08:12:07.157Z,93.13
2017-03-02T08:13:20.908Z,93.08
2017-03-02T08:14:34.657Z,93.42
2017-03-02T08:15:48.398Z,93.47
2017-03-02T08:17:02.105Z,94.43
2017-03-02T08:18:15.838Z,94.34
2017-03-02T08:19:29.579Z,94.15
2017-03-02T08:20:43.301Z,94.82
2017-03-02T08:21:57.071Z,94.15
2017-03-02T08:23:10.777Z,94.43
2017-03-02T08:24:23.890Z,95.21
2017-03-02T08:25:37.022Z,95.4
2017-03-02T08:26:50.767Z,95.11
2017-03-02T08:28:04.512Z,96.08
2017-03-02T08:29:17.666Z,95.88
2017-03-02T08:30:31.416Z,94.15
2017-03-02T08:31:44.540Z,93.08
2017-03-02T08:32:57.668Z,93.47
2017-03-02T08:34:10.760Z,93.28
2017-03-02T08:35:24.478Z,93.62
2017-03-02T08:36:38.164Z,94.15
2017-03-02T08:37:51.307Z,93.76
2017-03-02T08:39:05.014Z,93.76
2017-03-02T08:40:18.706Z,93.95
2017-03-02T08:41:31.869Z,94.05
2017-03-02T08:42:45.590Z,93.95
2017-03-02T08:43:58.119Z,94.34
2017-03-02T08:45:11.840Z,94.34
2017-03-02T08:46:24.349Z,95.21
2017-03-02T08:47:38.113Z,95.4
2017-03-02T08:48:51.270Z,94.92
2017-03-02T08:50:03.766Z,94.53
2017-03-02T08:51:16.910Z,95.4
2017-03-02T08:52:30.603Z,94.34
2017-03-02T08:53:44.366Z,94.43
2017-03-02T08:54:58.101Z,95.21
2017-03-02T08:56:11.828Z,95.11
2017-03-02T08:57:24.970Z,95.31
2017-03-02T08:58:38.693Z,94.34
2017-03-02T08:59:52.426Z,94.34
2017-03-02T09:01:04.967Z,94.34
2017-03-02T09:02:18.109Z,95.01
2017-03-02T09:03:31.858Z,95.11
2017-03-02T09:04:45.608Z,95.31
2017-03-02T09:05:59.319Z,95.31
2017-03-02T09:07:11.823Z,94.15
2017-03-02T09:08:25.561Z,95.11
2017-03-02T09:09:39.308Z,95.11
2017-03-02T09:10:52.414Z,95.69
2017-03-02T09:12:04.982Z,95.21
2017-03-02T09:13:18.715Z,94.53
2017-03-02T09:14:32.436Z,94.34
2017-03-02T09:15:46.155Z,94.24
2017-03-02T09:16:59.927Z,94.15
2017-03-02T09:18:13.018Z,94.53
2017-03-02T09:19:26.159Z,93.95
2017-03-02T09:20:39.932Z,93.85
2017-03-02T09:21:53.723Z,93.95
2017-03-02T09:23:07.493Z,94.05
2017-03-02T09:24:20.634Z,93.95
2017-03-02T09:25:34.362Z,93.85
2017-03-02T09:26:48.112Z,93.32
2017-03-02T09:28:01.235Z,93.28
2017-03-02T09:29:14.391Z,93.37
2017-03-02T09:30:28.116Z,93.32
2017-03-02T09:31:41.306Z,93.32
2017-03-02T09:32:55.040Z,93.13
2017-03-02T09:34:08.163Z,93.42
2017-03-02T09:35:21.347Z,92.55
2017-03-02T09:36:34.494Z,92.74
2017-03-02T09:37:48.190Z,92.55
2017-03-02T09:39:01.942Z,91.78
2017-03-02T09:40:15.673Z,92.07
2017-03-02T09:41:28.792Z,92.74
2017-03-02T09:42:41.905Z,92.07
2017-03-02T09:43:55.632Z,92.16
2017-03-02T09:45:09.411Z,91.78
2017-03-02T09:46:23.164Z,91.78
2017-03-02T09:47:35.701Z,92.26
2017-03-02T09:48:48.843Z,91.88
2017-03-02T09:50:02.589Z,91.2
2017-03-02T09:51:16.303Z,90.91
2017-03-02T09:52:28.846Z,91.3
2017-03-02T09:53:42.079Z,91.01
2017-03-02T09:54:55.813Z,91.3
2017-03-02T09:56:08.929Z,90.95
2017-03-02T09:57:22.654Z,90.19
2017-03-02T09:58:35.771Z,89.31
2017-03-02T09:59:49.528Z,89.26
2017-03-02T10:01:03.266Z,88.29
2017-03-02T10:02:16.990Z,87.62
2017-03-02T10:03:30.086Z,86.6
2017-03-02T10:04:43.853Z,86.02
2017-03-02T10:05:57.015Z,85.35
2017-03-02T10:07:10.753Z,85.53
2017-03-02T10:08:24.500Z,84.47
2017-03-02T10:09:37.610Z,82.87
2017-03-02T10:10:50.775Z,83.2
2017-03-02T10:12:04.540Z,83.11
2017-03-02T10:13:17.685Z,84.27
2017-03-02T10:14:31.429Z,85.29
2017-03-02T10:15:45.208Z,85.29
2017-03-02T10:16:58.394Z,85.53
2017-03-02T10:18:12.200Z,85.53
2017-03-02T10:19:25.974Z,86.02
2017-03-02T10:20:38.484Z,86.94
2017-03-02T10:21:52.206Z,87.33
2017-03-02T10:23:05.952Z,87.13
2017-03-02T10:24:19.659Z,86.94
2017-03-02T10:25:32.830Z,87.04
2017-03-02T10:26:46.564Z,87.43
2017-03-02T10:27:59.745Z,87.13
2017-03-02T10:29:13.456Z,88.01
2017-03-02T10:30:26.011Z,87.81
2017-03-02T10:31:38.543Z,88.2
2017-03-02T10:32:52.267Z,88.01
2017-03-02T10:34:06.020Z,88.01
2017-03-02T10:35:19.784Z,88.1
2017-03-02T10:36:33.018Z,88.01
2017-03-02T10:37:46.733Z,88.1
2017-03-02T10:39:00.483Z,88.68
2017-03-02T10:40:14.225Z,88.78
2017-03-02T10:41:27.968Z,88.01
2017-03-02T10:42:41.129Z,88.1
2017-03-02T10:43:54.947Z,88.01
2017-03-02T10:45:07.540Z,87.33
2017-03-02T10:46:21.271Z,87.33
2017-03-02T10:47:34.402Z,86.79
2017-03-02T10:48:47.509Z,85.05
2017-03-02T10:50:01.213Z,82.33
2017-03-02T10:51:15.005Z,81.98
2017-03-02T10:52:28.214Z,81.7
2017-03-02T10:53:41.340Z,81.7
2017-03-02T10:54:55.076Z,81.89
2017-03-02T10:56:07.639Z,81.75
2017-03-02T10:57:21.354Z,80.54
2017-03-02T10:58:34.510Z,80.57
2017-03-02T10:59:48.253Z,79.7
2017-03-02T11:01:02.034Z,81.6
2017-03-02T11:02:14.580Z,82.91
2017-03-02T11:03:27.710Z,81.85
2017-03-02T11:04:40.913Z,81.02
2017-03-02T11:05:54.655Z,79.47
2017-03-02T11:07:07.789Z,79.41
2017-03-02T11:08:21.514Z,79.5
2017-03-02T11:09:35.252Z,78.34
2017-03-02T11:10:49.007Z,79.93
2017-03-02T11:12:02.754Z,81.45
2017-03-02T11:13:15.919Z,82.18
2017-03-02T11:14:29.666Z,83.01
2017-03-02T11:15:43.395Z,82.53
2017-03-02T11:16:57.172Z,82.91
2017-03-02T11:18:10.919Z,83.4
2017-03-02T11:19:25.454Z,82.28
2017-03-02T11:20:38.611Z,82.08
2017-03-02T11:21:51.153Z,81.5
2017-03-02T11:23:04.963Z,81.7
2017-03-02T11:24:18.729Z,81.79
2017-03-02T11:25:31.877Z,81.89
2017-03-02T11:26:44.395Z,82.28
2017-03-02T11:27:57.537Z,80.54
2017-03-02T11:29:11.275Z,81.21
2017-03-02T11:30:23.827Z,80.73
2017-03-02T11:31:37.520Z,81.4
2017-03-02T11:32:50.711Z,80.92
2017-03-02T11:34:04.461Z,80.96
2017-03-02T11:35:18.188Z,80.96
2017-03-02T11:36:31.931Z,81.15
2017-03-02T11:37:45.658Z,81.4
2017-03-02T11:38:58.802Z,80.82
2017-03-02T11:40:11.966Z,80.28
2017-03-02T11:41:25.698Z,78.64
2017-03-02T11:42:38.845Z,77.51
2017-03-02T11:43:52.605Z,76.1
2017-03-02T11:45:06.376Z,77.84
2017-03-02T11:46:19.501Z,78.48
2017-03-02T11:47:33.507Z,79.35
2017-03-02T11:48:47.275Z,79.41
2017-03-02T11:49:59.231Z,79.99
2017-03-02T11:51:12.973Z,78.67
2017-03-02T11:52:26.679Z,78.52
2017-03-02T11:53:40.455Z,79.55
2017-03-02T11:54:53.644Z,79.93
2017-03-02T11:56:07.380Z,79.6
2017-03-02T11:57:21.129Z,78.87
2017-03-02T11:58:34.854Z,79.74
2017-03-02T11:59:48.667Z,81.05
2017-03-02T12:01:02.390Z,80.96
2017-03-02T12:02:16.156Z,81.93
2017-03-02T12:03:29.887Z,80.77
2017-03-02T12:04:43.650Z,79.5
2017-03-02T12:05:57.368Z,79.7
2017-03-02T12:07:10.532Z,79.35
2017-03-02T12:08:24.285Z,80.13
2017-03-02T12:09:38.049Z,80.42
2017-03-02T12:10:51.777Z,80.19
2017-03-02T12:12:05.552Z,80.28
2017-03-02T12:13:18.105Z,80.28
2017-03-02T12:14:30.625Z,81.05
2017-03-02T12:15:43.773Z,81.4
2017-03-02T12:16:57.511Z,81.21
2017-03-02T12:18:11.274Z,80.82
2017-03-02T12:19:25.065Z,81.79
2017-03-02T12:20:38.821Z,80.54
2017-03-02T12:21:52.553Z,80.38
2017-03-02T12:23:06.362Z,79.8
2017-03-02T12:24:20.087Z,79.41
2017-03-02T12:25:33.876Z,79.25
2017-03-02T12:26:47.628Z,78.09
2017-03-02T12:28:01.328Z,76.54
2017-03-02T12:29:15.087Z,75.55
2017-03-02T12:30:28.842Z,74.68
2017-03-02T12:31:42.572Z,74.68
2017-03-02T12:32:56.334Z,75.45
2017-03-02T12:34:09.477Z,73.16
2017-03-02T12:35:23.263Z,71.26
2017-03-02T12:36:36.405Z,70.75
2017-03-02T12:37:50.144Z,70.16
2017-03-02T12:39:03.322Z,72.17
2017-03-02T12:40:16.504Z,73.1
2017-03-02T12:41:29.647Z,71.06
2017-03-02T12:42:43.398Z,70.65
2017-03-02T12:43:57.142Z,71.1
2017-03-02T12:45:10.860Z,69.48
2017-03-02T12:46:24.629Z,69.48
2017-03-02T12:47:37.786Z,70.1
2017-03-02T12:48:50.979Z,72.3
2017-03-02T12:50:04.677Z,73.78
2017-03-02T12:51:17.818Z,74.04
2017-03-02T12:52:30.941Z,75.59
2017-03-02T12:53:43.538Z,75.94
2017-03-02T12:54:57.301Z,76.48
2017-03-02T12:56:11.113Z,77.06
2017-03-02T12:57:23.703Z,77.36
2017-03-02T12:58:36.282Z,77.75
2017-03-02T12:59:50.043Z,77.45
2017-03-02T13:01:03.798Z,78.13
2017-03-02T13:02:17.559Z,77.16
2017-03-02T13:03:30.713Z,77.26
2017-03-02T13:04:44.418Z,78.03
2017-03-02T13:05:58.125Z,78.19
2017-03-02T13:07:11.882Z,78.38
2017-03-02T13:08:25.586Z,78.77
2017-03-02T13:09:38.744Z,79.16
2017-03-02T13:10:52.507Z,79.06
2017-03-02T13:12:06.224Z,78.97
2017-03-02T13:13:18.747Z,78.38
2017-03-02T13:14:32.460Z,78.92
2017-03-02T13:15:46.184Z,79.84
2017-03-02T13:16:59.922Z,79.25
2017-03-02T13:18:13.676Z,78.48
2017-03-02T13:19:27.421Z,77.51
2017-03-02T13:20:40.590Z,75.45
2017-03-02T13:21:54.277Z,75.16
2017-03-02T13:23:07.434Z,73.16
2017-03-02T13:24:20.598Z,73.58
2017-03-02T13:25:34.379Z,72.61
2017-03-02T13:26:47.486Z,74.17
2017-03-02T13:28:01.260Z,75.01
2017-03-02T13:29:15.021Z,75.49
2017-03-02T13:30:28.754Z,76.37
2017-03-02T13:31:41.907Z,76.17
2017-03-02T13:32:55.667Z,76.65
2017-03-02T13:34:09.389Z,77.01
2017-03-02T13:35:23.176Z,77.11
2017-03-02T13:36:36.347Z,77.26
2017-03-02T13:37:49.688Z,77.16
2017-03-02T13:39:03.313Z,74.45
2017-03-02T13:40:16.508Z,73.9
2017-03-02T13:41:29.672Z,72.87
2017-03-02T13:42:43.411Z,72.23
2017-03-02T13:43:57.158Z,72.23
2017-03-02T13:45:10.877Z,71.64
2017-03-02T13:46:24.653Z,71.2
2017-03-02T13:47:38.381Z,71.58
2017-03-02T13:48:50.911Z,72.81
2017-03-02T13:50:04.625Z,73.1
2017-03-02T13:51:17.768Z,73.42
2017-03-02T13:52:30.939Z,73.16
2017-03-02T13:53:44.088Z,72.67
2017-03-02T13:54:57.269Z,72.03
2017-03-02T13:56:11.048Z,70.87
2017-03-02T13:57:24.787Z,73.58
2017-03-02T13:58:37.933Z,73.55
2017-03-02T13:59:52.054Z,73.55
2017-03-02T14:01:06.102Z,74.13
2017-03-02T14:02:19.804Z,74.77
2017-03-02T14:03:33.590Z,74.58
2017-03-02T14:04:47.350Z,74.58
2017-03-02T14:06:00.475Z,74.58
2017-03-02T14:07:14.196Z,76.39
2017-03-02T14:08:27.351Z,77.32
2017-03-02T14:09:41.087Z,76.15
2017-03-02T14:10:54.818Z,76.35
2017-03-02T14:12:08.558Z,77.47
2017-03-02T14:13:22.290Z,77.42
2017-03-02T14:14:35.422Z,76.83
2017-03-02T14:15:49.220Z,75.9
2017-03-02T14:17:02.968Z,76.39
2017-03-02T14:18:15.495Z,75.65
2017-03-02T14:19:28.054Z,74.77
2017-03-02T14:20:41.205Z,75.36
2017-03-02T14:21:54.946Z,76.19
2017-03-02T14:23:08.076Z,77.94
2017-03-02T14:24:21.850Z,78.09
2017-03-02T14:25:34.387Z,78.19
2017-03-02T14:26:47.537Z,78.87
2017-03-02T14:28:00.681Z,77.8
2017-03-02T14:29:14.444Z,78.09
2017-03-02T14:30:28.274Z,79.16
2017-03-02T14:31:41.395Z,78
2017-03-02T14:32:54.559Z,76.91
2017-03-02T14:34:08.308Z,76.42
2017-03-02T14:35:21.569Z,76.17
2017-03-02T14:36:35.365Z,75.88
2017-03-02T14:37:49.135Z,77.24
2017-03-02T14:39:02.912Z,77.59
2017-03-02T14:40:16.032Z,76.87
2017-03-02T14:41:29.777Z,76.42
2017-03-02T14:42:43.603Z,76.17
2017-03-02T14:43:57.359Z,75.88
2017-03-02T14:45:11.098Z,75.68
2017-03-02T14:46:24.977Z,73.3
2017-03-02T14:47:38.773Z,70.94
2017-03-02T14:48:52.604Z,72.78
2017-03-02T14:50:05.150Z,74.3
2017-03-02T14:51:18.856Z,74.85
2017-03-02T14:52:32.640Z,74.95
2017-03-02T14:53:46.370Z,76.21
2017-03-02T14:55:00.123Z,75.82
2017-03-02T14:56:13.888Z,74.75
2017-03-02T14:57:27.658Z,74.56
2017-03-02T14:58:40.813Z,73.43
2017-03-02T14:59:54.551Z,72.2
2017-03-02T15:01:08.334Z,70.58
2017-03-02T15:02:21.454Z,71.75
2017-03-02T15:03:34.658Z,71.36
2017-03-02T15:04:48.447Z,71.59
2017-03-02T15:06:02.196Z,69.65
2017-03-02T15:07:15.360Z,70.13
2017-03-02T15:08:28.791Z,70.91
2017-03-02T15:09:42.532Z,70.91
2017-03-02T15:10:56.265Z,72.33
2017-03-02T15:12:10.019Z,73.08
2017-03-02T15:13:23.757Z,72.78
2017-03-02T15:14:37.542Z,72.2
2017-03-02T15:15:51.294Z,71.66
2017-03-02T15:17:04.460Z,71.26
2017-03-02T15:18:17.609Z,70.58
2017-03-02T15:19:30.727Z,70.58
2017-03-02T15:20:43.880Z,70.81
2017-03-02T15:21:57.680Z,70.72
2017-03-02T15:23:11.972Z,70.97
2017-03-02T15:24:25.703Z,70.29
2017-03-02T15:25:38.870Z,68.77
2017-03-02T15:26:52.602Z,67.99
2017-03-02T15:28:06.845Z,68.8
2017-03-02T15:29:18.943Z,69.35
2017-03-02T15:30:32.690Z,68.41
2017-03-02T15:31:46.456Z,69.06
2017-03-02T15:33:00.191Z,69.84
2017-03-02T15:34:13.379Z,69.35
2017-03-02T15:35:27.172Z,69.06
2017-03-02T15:36:40.386Z,66.63
2017-03-02T15:37:53.552Z,65.43
2017-03-02T15:39:07.258Z,64.59
2017-03-02T15:40:20.999Z,65.23
2017-03-02T15:41:34.805Z,65.33
2017-03-02T15:42:47.952Z,63.61
2017-03-02T15:44:01.103Z,63.22
2017-03-02T15:45:14.232Z,64.69
2017-03-02T15:46:26.750Z,64
2017-03-02T15:47:40.601Z,60.94
2017-03-02T15:48:53.740Z,58.76
2017-03-02T15:50:07.515Z,61.24
2017-03-02T15:51:21.275Z,60.52